Terminal Aerodrome Forecast
Issued by NWS Jackson, KY

Home | Current Version | Previous Version | Text Only | Print | Product List | Glossary On
Versions: 1 2 3 4 5 6 7 8 9 10 11 12 13 14 15 16 17 18 19 20 21
000
FTUS43 KJKL 232320
TAFLOZ
TAF
KLOZ 232320Z 2400/2424 00000KT P6SM SCT110
     FM240900 17005KT P6SM SCT200 WS020/20035KT
     FM241300 18008KT P6SM FEW035 SCT140
     FM241500 19012G20KT P6SM FEW035 SCT120=

USA.gov is the U.S. government's official web portal to all federal, state and local government web resources and services.